Chievres Air Base, Belgium

4:09 AM CEST on September 15, 2014 (GMT +0200)
RW | Change Station
CLOSE
Current Station
Personal Weather Station
Location: Silly, HT
Elevation: 302 ft
Nearby Weather Stations

Elev 302 ft 50.64 °N, 3.94 °E | Updated 6 minutes ago

Overcast
Overcast
57.7 °F
Feels Like 57.7 °F
N
0.0
Wind Variable Wind from North
Gusts 0.0 mph

Today
High -- | Low -- °F
--% Chance of Precip.
Yesterday
High -- | Low -- °F
Precip. -- in
7:19 AM 7:58 PM
Waning Gibbous, 60% visible
Pressure 30.04 in
Visibility 6.2 miles
Clouds Mostly Cloudy 3500 ft
Overcast 7000 ft
Dew Point 58 °F
Humidity 99%
Rainfall 0.00 in
Snow Depth Not available.
UV 0 out of 12
Pollen Not available.
Air Quality Not available.
Flu Activity Not available.
METAR LFQQ 150200Z AUTO 04005KT 9999 BKN035 OVC070 14/13 Q1017

More Conditions Fewer Conditions

Pressure 30.04 in
Visibility 6.2 miles
Clouds Mostly Cloudy 3500 ft
Overcast 7000 ft
Dew Point 58 °F
Humidity 99%
Rainfall 0.00 in
Snow Depth Not available.
UV 0 out of 12
Pollen Not available.
Air Quality Not available.
Flu Activity Not available.
METAR LFQQ 150200Z AUTO 04005KT 9999 BKN035 OVC070 14/13 Q1017

More Conditions Fewer Conditions

10-Day Weather Forecast

Almanac

Astronomy

Sep. 15, 2014 Rise Set
Actual Time 7:19 AM CEST 7:58 PM CEST
Civil Twilight 6:46 AM CEST 8:31 PM CEST
Nautical Twilight 6:07 AM CEST 9:11 PM CEST
Astronomical Twilight 5:25 AM CEST 9:52 PM CEST
Moon 11:51 PM CEST 2:43 PM CEST
Length of Visible Light 13h 45m
Length of Day
12h 39m
Tomorrow will be 3m 47s shorter.
Waning Gibbous, 60% of the Moon is Illuminated
Sep 14
Waning Gibbous
Sep 15
Last Quarter
Sep 24
New
Oct 1
First Quarter
Oct 8
Full

Yesterday's Extremes

Country Highs Country Lows

Community

WunderPhotos

Upload Photos

1,753,371 photos uploaded!

Nearby

Snow Depth

Not available.

Earthquake Activity

City Distance Mag. Time & Date
No recent earthquake activity has been reported nearby.
Minimum magnitude displayed is 2.5.

Coastal Water Temperatures

Place Temperature
No Stations Reporting

Nearby Weather Stations